Terminal Aerodrome Forecast
Issued by NWS

Home | Current Version | Previous Version | Text Only | Print | Product List | Glossary On
Versions: 1 2 3 4 5 6 7 8 9 10 11 12 13 14 15 16
000
FTUS42 KMLB 231757
TAFSUA
TAF
KSUA 231757Z 2318/2418 09015G22KT P6SM VCTS SCT020CB OVC040
      TEMPO 2318/2321 2SM TSRA BKN010CB OVC020
     FM232200 07016G23KT P6SM SCT030 OVC050
     FM240300 08013KT P6SM FEW030 BKN100
     FM241300 10017G25KT P6SM SCT030 BKN120=

USA.gov is the U.S. government's official web portal to all federal, state and local government web resources and services.